Time;durP1;ratioP1;P1;durP2;ratioP2;P2;SDS_P1;SDS_P2;PMS_P1;PMS_P2;Temp;Humidity;BMP_temperature;BMP_pressure;BME280_temperature;BME280_humidity;BME280_pressure;Samples;Min_cycle;Max_cycle;Signal;HPM_P1;HPM_P2
2022/05/14 00:00:40;;;;;;;7.00;2.35;;;16.10;79.10;;;;;;5070771;28;20033;-78
2022/05/14 00:03:06;;;;;;;10.25;2.78;;;16.10;78.90;;;;;;5070703;28;20033;-78
2022/05/14 00:05:31;;;;;;;9.88;2.83;;;16.10;79.00;;;;;;5071317;28;20029;-78
2022/05/14 00:07:57;;;;;;;7.10;2.33;;;16.20;78.90;;;;;;5074786;28;20095;-77
2022/05/14 00:10:26;;;;;;;8.45;2.60;;;16.10;78.70;;;;;;5056803;28;20039;-78
2022/05/14 00:13:03;;;;;;;8.10;2.50;;;16.10;78.70;;;;;;5056660;28;20028;-78
2022/05/14 00:15:40;;;;;;;7.68;2.25;;;16.10;78.60;;;;;;5074243;28;20043;-78
2022/05/14 00:18:09;;;;;;;9.85;2.90;;;16.00;79.00;;;;;;5074172;28;20052;-77
2022/05/14 00:20:36;;;;;;;10.55;3.10;;;16.00;79.10;;;;;;5074308;28;20031;-78
2022/05/14 00:23:05;;;;;;;11.25;2.40;;;16.00;79.10;;;;;;5074063;28;20454;-78
2022/05/14 00:25:31;;;;;;;7.90;2.08;;;16.00;79.20;;;;;;5074811;28;20033;-78
2022/05/14 00:27:57;;;;;;;9.75;2.67;;;16.00;79.20;;;;;;5074194;28;20035;-77
2022/05/14 00:30:27;;;;;;;7.68;2.38;;;16.00;79.40;;;;;;5073964;28;20021;-78
2022/05/14 00:32:54;;;;;;;6.25;2.30;;;16.00;79.60;;;;;;5073886;28;20032;-78
2022/05/14 00:35:20;;;;;;;9.82;2.30;;;16.00;79.30;;;;;;5073729;28;20021;-78
2022/05/14 00:37:46;;;;;;;9.00;2.42;;;16.00;79.70;;;;;;5074195;28;20029;-78
2022/05/14 00:40:19;;;;;;;7.05;2.30;;;16.00;79.50;;;;;;5073861;28;20457;-77
2022/05/14 00:42:45;;;;;;;8.93;2.30;;;16.00;79.90;;;;;;5073705;28;20363;-77
2022/05/14 00:45:13;;;;;;;8.07;2.58;;;15.70;80.20;;;;;;5073663;28;20040;-78
2022/05/14 01:01:32;;;;;;;11.68;2.67;;;15.90;79.70;;;;;;5067685;28;20039;-76
2022/05/14 01:11:07;;;;;;;8.68;2.45;;;16.00;80.10;;;;;;5053489;28;20048;-78
2022/05/14 01:14:09;;;;;;;11.70;3.33;;;16.00;80.20;;;;;;5056741;28;20097;-78
2022/05/14 01:38:03;;;;;;;5.70;2.20;;;15.90;80.40;;;;;;5065212;28;20142;-78
2022/05/14 01:40:30;;;;;;;11.07;2.65;;;15.90;80.80;;;;;;5035636;28;20021;-78
2022/05/14 01:42:55;;;;;;;11.43;3.00;;;15.90;80.60;;;;;;5052987;28;20079;-78
2022/05/14 01:45:21;;;;;;;11.48;2.60;;;15.90;80.70;;;;;;5052675;28;20445;-78
2022/05/14 01:47:46;;;;;;;12.05;2.60;;;15.90;80.20;;;;;;5052685;28;20037;-77
2022/05/14 01:50:12;;;;;;;9.82;2.83;;;15.80;80.50;;;;;;5052459;28;20552;-77
2022/05/14 01:52:38;;;;;;;13.95;4.40;;;15.90;80.60;;;;;;5052805;28;20362;-78
2022/05/14 01:55:04;;;;;;;7.45;2.40;;;15.90;80.70;;;;;;5034663;28;20098;-78
2022/05/14 01:57:30;;;;;;;11.88;2.80;;;15.80;80.90;;;;;;5052619;28;20025;-78
2022/05/14 01:59:55;;;;;;;11.55;2.70;;;15.80;81.00;;;;;;5052415;28;20118;-78
2022/05/14 02:02:21;;;;;;;10.98;2.88;;;15.80;80.90;;;;;;5034668;28;20118;-79
2022/05/14 02:04:46;;;;;;;10.75;2.88;;;15.90;80.90;;;;;;5052608;28;20027;-79
2022/05/14 02:07:12;;;;;;;8.63;2.72;;;15.90;80.80;;;;;;5034552;28;20104;-79
2022/05/14 02:09:38;;;;;;;8.80;2.45;;;15.90;80.60;;;;;;5052024;28;20040;-76
2022/05/14 02:12:04;;;;;;;11.45;3.17;;;15.90;80.80;;;;;;5034510;28;20040;-78
2022/05/14 02:14:30;;;;;;;11.18;3.08;;;15.90;80.80;;;;;;5052111;28;20053;-77
2022/05/14 02:16:56;;;;;;;15.20;3.70;;;15.90;81.10;;;;;;5034854;28;20712;-77
2022/05/14 02:19:21;;;;;;;14.68;3.35;;;15.90;81.20;;;;;;5034392;28;20033;-77
2022/05/14 02:21:47;;;;;;;13.00;3.50;;;15.80;81.50;;;;;;5051799;28;20594;-77
2022/05/14 02:24:13;;;;;;;14.25;3.80;;;15.80;81.30;;;;;;5051844;28;20041;-76
2022/05/14 02:26:38;;;;;;;11.70;3.28;;;15.70;81.90;;;;;;5051603;28;20033;-77
2022/05/14 02:29:04;;;;;;;12.85;3.65;;;15.70;82.20;;;;;;5051257;28;20029;-77
2022/05/14 02:31:29;;;;;;;15.70;3.22;;;15.60;82.00;;;;;;5052122;28;20013;-78
2022/05/14 02:33:55;;;;;;;12.65;3.20;;;15.60;82.30;;;;;;5051703;28;20073;-77
2022/05/14 02:36:21;;;;;;;11.02;3.22;;;15.50;83.10;;;;;;5051662;28;20033;-77
2022/05/14 02:38:46;;;;;;;7.60;2.63;;;15.50;82.70;;;;;;5033895;28;20564;-77
2022/05/14 02:41:13;;;;;;;11.05;2.78;;;15.40;82.80;;;;;;5051778;28;20024;-78
2022/05/14 02:43:40;;;;;;;7.13;2.70;;;15.40;82.90;;;;;;5052015;28;20086;-76
2022/05/14 02:46:06;;;;;;;10.70;3.45;;;15.50;82.60;;;;;;5051456;28;20025;-77
2022/05/14 02:48:33;;;;;;;12.20;3.58;;;15.40;83.00;;;;;;5051315;28;20459;-78
2022/05/14 02:51:00;;;;;;;9.05;3.05;;;15.40;83.10;;;;;;5033599;28;20060;-76
2022/05/14 02:53:26;;;;;;;8.43;3.33;;;15.30;82.60;;;;;;5051328;28;20124;-78
2022/05/14 02:55:52;;;;;;;14.70;3.20;;;15.30;82.90;;;;;;5051624;28;20516;-78
2022/05/14 02:59:06;;;;;;;11.85;3.47;;;15.20;83.10;;;;;;5051184;28;20041;-78
2022/05/14 03:01:06;;;;;;;11.38;2.90;;;15.20;83.20;;;;;;5051163;28;20037;-79
2022/05/14 03:03:32;;;;;;;13.57;2.88;;;15.20;83.10;;;;;;5033649;28;20029;-77
2022/05/14 03:05:58;;;;;;;14.15;2.63;;;15.20;83.10;;;;;;5033542;28;20524;-77
2022/05/14 03:08:24;;;;;;;11.20;2.95;;;15.10;83.10;;;;;;5051109;28;20039;-78
2022/05/14 03:10:50;;;;;;;13.43;2.70;;;15.20;82.80;;;;;;5033922;28;20021;-78
2022/05/14 03:13:16;;;;;;;9.55;2.58;;;15.10;82.90;;;;;;5051198;28;20051;-78
2022/05/14 03:15:42;;;;;;;13.43;2.92;;;15.10;83.10;;;;;;5050933;28;20052;-78
2022/05/14 03:18:08;;;;;;;11.70;2.53;;;15.20;83.00;;;;;;5050929;28;20033;-78
2022/05/14 03:20:33;;;;;;;12.88;3.00;;;15.20;83.30;;;;;;5050878;28;20049;-79
2022/05/14 03:22:59;;;;;;;10.57;2.72;;;15.20;83.10;;;;;;5051501;28;20029;-78
2022/05/14 03:25:25;;;;;;;7.10;2.67;;;15.10;83.40;;;;;;5050854;28;20361;-78
2022/05/14 03:27:51;;;;;;;9.75;2.67;;;15.10;83.30;;;;;;5050904;28;20051;-78
2022/05/14 03:30:17;;;;;;;8.60;3.08;;;15.10;83.80;;;;;;5050985;28;20455;-77
2022/05/14 03:32:43;;;;;;;8.10;2.55;;;15.10;83.40;;;;;;5050815;28;20055;-77
2022/05/14 03:35:08;;;;;;;9.35;3.10;;;15.10;83.30;;;;;;5050721;28;20025;-77
2022/05/14 03:37:35;;;;;;;9.27;2.40;;;15.10;83.40;;;;;;5051247;28;20021;-78
2022/05/14 03:40:02;;;;;;;10.90;2.63;;;15.00;83.60;;;;;;5050803;28;20037;-78
2022/05/14 03:42:28;;;;;;;15.13;3.80;;;15.00;84.00;;;;;;5054153;28;20104;-78
2022/05/14 03:44:53;;;;;;;8.45;3.15;;;14.90;84.20;;;;;;5054989;28;20168;-79
2022/05/14 03:47:19;;;;;;;6.25;2.78;;;15.00;84.10;;;;;;5054826;28;20327;-79
2022/05/14 03:49:45;;;;;;;13.43;3.20;;;15.00;83.80;;;;;;5037439;28;20051;-78
2022/05/14 03:52:11;;;;;;;12.25;3.20;;;15.00;83.80;;;;;;5054692;28;20035;-78
2022/05/14 03:54:38;;;;;;;5.63;2.80;;;15.00;84.10;;;;;;5054824;28;20032;-78
2022/05/14 03:57:07;;;;;;;5.60;3.35;;;14.90;83.90;;;;;;5054854;28;20037;-78
2022/05/14 03:59:33;;;;;;;6.30;2.67;;;15.00;83.70;;;;;;5054801;28;20033;-79
2022/05/14 04:02:00;;;;;;;11.35;2.80;;;14.90;84.30;;;;;;5055203;28;20082;-77
2022/05/14 04:04:25;;;;;;;14.63;3.38;;;15.00;84.20;;;;;;5054456;28;20079;-77
2022/05/14 04:06:51;;;;;;;6.60;2.22;;;15.00;84.10;;;;;;5054542;28;20037;-77
2022/05/14 04:09:17;;;;;;;22.00;2.95;;;15.00;84.00;;;;;;5054658;28;20458;-78
2022/05/14 04:11:42;;;;;;;8.90;3.15;;;15.10;84.10;;;;;;5054516;28;20033;-78
2022/05/14 04:14:08;;;;;;;10.88;2.83;;;15.10;83.70;;;;;;5054299;28;20025;-77
2022/05/14 04:16:34;;;;;;;14.55;3.88;;;15.10;83.60;;;;;;5054583;28;20072;-77
2022/05/14 04:18:59;;;;;;;9.15;2.38;;;15.10;83.50;;;;;;5054265;28;20029;-79
2022/05/14 04:21:25;;;;;;;11.45;2.40;;;15.10;83.60;;;;;;5036608;28;20366;-78
2022/05/14 04:23:50;;;;;;;10.57;2.65;;;15.20;83.80;;;;;;5054320;28;20029;-78
2022/05/14 04:26:16;;;;;;;10.07;2.45;;;15.20;83.40;;;;;;5036514;28;20040;-79
2022/05/14 04:28:41;;;;;;;12.60;2.80;;;15.30;83.30;;;;;;5055087;28;20406;-79
2022/05/14 04:31:07;;;;;;;16.33;3.20;;;15.20;83.40;;;;;;5054054;28;20662;-79
2022/05/14 04:33:33;;;;;;;7.47;2.28;;;15.30;83.40;;;;;;5053936;28;20513;-76
2022/05/14 04:35:59;;;;;;;8.05;2.65;;;15.20;83.60;;;;;;5054049;28;20378;-78
2022/05/14 04:38:24;;;;;;;6.72;2.25;;;15.20;83.60;;;;;;5053845;28;20036;-77
2022/05/14 04:40:50;;;;;;;12.18;3.22;;;15.20;83.80;;;;;;5054421;28;20056;-78
2022/05/14 04:43:16;;;;;;;14.02;2.88;;;15.00;84.50;;;;;;5054012;28;20048;-78
2022/05/14 04:45:43;;;;;;;11.73;3.25;;;15.10;84.60;;;;;;5053667;28;20629;-78
2022/05/14 04:48:10;;;;;;;8.43;2.83;;;15.00;84.40;;;;;;5036157;28;20029;-76
2022/05/14 04:50:36;;;;;;;9.50;2.53;;;15.10;84.60;;;;;;5053585;28;20048;-78
2022/05/14 04:53:02;;;;;;;13.73;2.95;;;15.10;84.20;;;;;;5052961;28;20025;-80
2022/05/14 04:55:27;;;;;;;13.02;2.95;;;15.10;84.60;;;;;;5054229;28;20032;-79
2022/05/14 04:57:54;;;;;;;8.80;2.70;;;15.10;84.70;;;;;;5053655;28;20029;-78
2022/05/14 05:00:19;;;;;;;10.70;2.90;;;15.30;84.60;;;;;;5053494;28;20492;-79
2022/05/14 05:05:30;;;;;;;10.38;3.30;;;15.20;84.80;;;;;;5053436;28;20028;-77
2022/05/14 05:07:56;;;;;;;9.95;3.17;;;15.10;85.30;;;;;;5053993;28;20104;-80
2022/05/14 05:10:22;;;;;;;12.50;3.63;;;14.90;86.20;;;;;;5053434;28;20583;-80
2022/05/14 05:12:48;;;;;;;12.85;3.28;;;15.10;86.10;;;;;;5035785;28;20056;-80
2022/05/14 05:15:14;;;;;;;11.38;2.92;;;15.10;85.90;;;;;;5053116;28;20049;-79
2022/05/14 05:17:40;;;;;;;10.90;3.15;;;15.10;86.00;;;;;;5053167;28;20029;-79
2022/05/14 05:20:07;;;;;;;8.30;2.88;;;15.10;86.10;;;;;;5035602;28;20102;-79
2022/05/14 05:22:32;;;;;;;11.73;3.00;;;14.90;86.70;;;;;;5053731;28;20025;-76
2022/05/14 05:24:58;;;;;;;14.27;3.90;;;14.90;87.20;;;;;;5052870;28;20060;-77
2022/05/14 05:27:24;;;;;;;14.80;3.50;;;14.90;87.60;;;;;;5052990;28;20025;-77
2022/05/14 05:29:49;;;;;;;18.23;3.38;;;15.00;87.60;;;;;;5053024;28;20033;-77
2022/05/14 05:32:15;;;;;;;13.45;3.25;;;15.00;87.80;;;;;;5052978;28;20036;-78
2022/05/14 05:34:41;;;;;;;14.60;4.15;;;15.10;87.60;;;;;;5035773;28;20039;-78
2022/05/14 05:37:06;;;;;;;10.43;3.03;;;15.30;87.40;;;;;;5052466;28;20049;-77
2022/05/14 05:39:32;;;;;;;20.00;4.13;;;15.20;87.50;;;;;;5052528;28;20029;-78
2022/05/14 05:41:58;;;;;;;17.38;4.38;;;15.30;87.40;;;;;;5052860;28;20406;-77
2022/05/14 05:44:25;;;;;;;16.20;4.13;;;15.20;87.50;;;;;;5053201;28;20041;-75
2022/05/14 05:46:52;;;;;;;14.73;4.28;;;15.20;88.00;;;;;;5053059;28;20366;-76
2022/05/14 05:49:17;;;;;;;11.88;3.40;;;15.30;88.30;;;;;;5034982;28;20438;-77
2022/05/14 05:51:43;;;;;;;9.77;2.90;;;15.40;88.20;;;;;;5034903;28;20094;-74
2022/05/14 05:56:57;;;;;;;14.38;4.07;;;16.10;87.10;;;;;;5052657;28;20040;-76
2022/05/14 05:59:24;;;;;;;11.75;3.28;;;16.00;86.80;;;;;;5052219;28;20465;-73
2022/05/14 06:01:52;;;;;;;13.43;4.03;;;16.20;87.00;;;;;;5052477;28;20043;-76
2022/05/14 06:04:18;;;;;;;24.42;4.15;;;16.40;85.90;;;;;;5033559;28;20120;-79
2022/05/14 06:06:44;;;;;;;14.70;4.22;;;16.40;85.50;;;;;;5051990;28;20094;-77
2022/05/14 06:09:12;;;;;;;18.60;4.20;;;16.40;85.60;;;;;;5051859;28;20029;-76
2022/05/14 06:11:38;;;;;;;13.15;3.50;;;16.50;86.10;;;;;;5051956;28;20442;-76
2022/05/14 06:14:04;;;;;;;10.63;3.13;;;16.70;86.10;;;;;;5051879;28;20116;-77
2022/05/14 06:16:29;;;;;;;9.85;3.67;;;16.60;85.00;;;;;;5052069;28;20466;-77
2022/05/14 06:18:56;;;;;;;17.00;3.85;;;16.80;85.00;;;;;;5051871;28;20508;-76
2022/05/14 06:21:21;;;;;;;12.13;3.50;;;17.00;84.90;;;;;;5051586;28;20534;-74
2022/05/14 06:23:47;;;;;;;13.18;3.72;;;17.50;84.30;;;;;;5034491;28;20029;-75
2022/05/14 06:26:12;;;;;;;13.15;3.97;;;17.90;82.60;;;;;;5052217;28;20032;-84
2022/05/14 06:28:38;;;;;;;15.48;4.90;;;17.50;82.60;;;;;;5034574;28;20037;-77
2022/05/14 06:31:06;;;;;;;14.55;4.40;;;17.40;83.20;;;;;;5051837;28;20033;-72
2022/05/14 06:33:32;;;;;;;16.17;4.05;;;17.20;83.30;;;;;;5051727;28;20048;-76
2022/05/14 06:35:58;;;;;;;19.15;3.97;;;17.20;84.00;;;;;;5051594;28;20421;-81
2022/05/14 06:38:24;;;;;;;19.13;3.85;;;17.30;83.40;;;;;;5051703;28;20032;-75
2022/05/14 06:40:50;;;;;;;11.60;4.47;;;17.40;83.50;;;;;;5050776;28;20466;-77
2022/05/14 06:43:18;;;;;;;19.45;4.35;;;17.50;83.30;;;;;;5054074;28;20043;-74
2022/05/14 06:45:45;;;;;;;19.55;4.28;;;17.80;82.60;;;;;;5071469;28;20687;-76
2022/05/14 06:48:11;;;;;;;15.45;4.35;;;17.60;82.80;;;;;;5071454;28;20450;-76
2022/05/14 06:50:48;;;;;;;16.35;4.40;;;17.70;82.60;;;;;;5071274;28;20454;-74
2022/05/14 06:53:15;;;;;;;21.83;4.78;;;18.00;82.50;;;;;;5071203;28;20024;-75
2022/05/14 06:55:44;;;;;;;12.73;3.77;;;17.70;82.70;;;;;;5072135;28;20041;-74
2022/05/14 06:58:13;;;;;;;16.00;3.78;;;17.60;83.30;;;;;;5071187;28;20032;-74
2022/05/14 07:00:39;;;;;;;19.25;3.88;;;17.60;83.40;;;;;;5071424;28;20028;-80
2022/05/14 07:08:33;;;;;;;16.90;4.75;;;18.20;82.30;;;;;;5071212;28;20028;-73
2022/05/14 07:10:59;;;;;;;15.57;4.45;;;18.20;82.10;;;;;;5071573;28;20021;-74
2022/05/14 07:13:25;;;;;;;18.88;4.40;;;18.30;82.10;;;;;;5071325;28;20033;-79
2022/05/14 07:15:50;;;;;;;17.85;4.20;;;18.30;81.90;;;;;;5070749;28;20140;-80
2022/05/14 07:18:16;;;;;;;18.42;4.72;;;18.40;82.00;;;;;;5071470;28;20040;-75
2022/05/14 07:20:42;;;;;;;16.17;4.32;;;18.30;81.90;;;;;;5071029;28;20457;-78
2022/05/14 07:23:07;;;;;;;16.20;4.13;;;18.30;82.00;;;;;;5070864;28;20032;-76
2022/05/14 07:25:33;;;;;;;22.77;4.72;;;18.50;81.80;;;;;;5071284;28;20081;-75
2022/05/14 07:27:58;;;;;;;16.70;4.88;;;18.30;81.90;;;;;;5071112;28;20017;-75
2022/05/14 07:30:25;;;;;;;18.92;5.63;;;18.20;82.60;;;;;;5070806;28;20025;-76
2022/05/14 07:32:51;;;;;;;15.63;4.68;;;18.40;82.20;;;;;;5070874;28;20040;-77
2022/05/14 07:35:16;;;;;;;15.98;4.30;;;18.40;82.20;;;;;;5070676;28;20032;-71
2022/05/14 07:37:47;;;;;;;20.33;5.00;;;18.50;82.10;;;;;;5071279;28;20039;-77
2022/05/14 07:40:20;;;;;;;19.83;5.35;;;18.30;81.90;;;;;;5070699;28;20342;-78
2022/05/14 07:42:58;;;;;;;18.95;4.95;;;18.30;82.30;;;;;;5070997;28;20021;-76
2022/05/14 07:45:32;;;;;;;14.60;4.30;;;18.20;82.50;;;;;;5052962;28;20070;-76
2022/05/14 07:48:00;;;;;;;15.82;4.75;;;18.30;82.40;;;;;;5054419;28;20033;-82
2022/05/14 07:50:26;;;;;;;18.20;5.35;;;18.40;82.30;;;;;;5055435;28;20028;-83
2022/05/14 07:52:52;;;;;;;19.58;4.97;;;18.60;83.10;;;;;;5071813;28;20025;-82
2022/05/14 07:55:18;;;;;;;15.65;4.70;;;18.70;81.80;;;;;;5053341;28;20036;-77
2022/05/14 07:57:44;;;;;;;14.95;3.72;;;18.80;81.30;;;;;;5071549;28;20028;-75
2022/05/14 08:00:11;;;;;;;21.73;8.20;;;19.10;80.30;;;;;;5053009;28;20402;-78
2022/05/14 08:02:37;;;;;;;20.80;5.03;;;19.30;80.20;;;;;;5053193;28;20028;-79
2022/05/14 08:05:08;;;;;;;26.80;5.47;;;19.30;80.40;;;;;;5070488;28;20093;-77
2022/05/14 08:07:34;;;;;;;14.95;4.90;;;19.30;79.20;;;;;;5053265;28;20029;-74
2022/05/14 08:10:00;;;;;;;21.50;5.15;;;19.40;80.30;;;;;;5070412;28;20025;-75
2022/05/14 08:12:31;;;;;;;26.30;4.70;;;19.90;79.00;;;;;;5070388;28;20032;-75
2022/05/14 08:14:56;;;;;;;21.33;5.00;;;20.20;77.40;;;;;;5070192;28;20478;-76
2022/05/14 08:17:22;;;;;;;18.88;4.85;;;20.30;76.30;;;;;;5052467;28;20035;-76
2022/05/14 08:19:48;;;;;;;14.40;4.55;;;20.40;75.90;;;;;;5070873;28;20445;-75
2022/05/14 08:24:57;;;;;;;13.75;4.07;;;20.80;74.60;;;;;;5070220;28;20486;-78
2022/05/14 08:27:23;;;;;;;13.82;3.80;;;21.40;73.20;;;;;;5071791;28;20029;-79
2022/05/14 08:29:48;;;;;;;22.20;4.32;;;21.50;71.80;;;;;;5056476;28;20111;-76
2022/05/14 08:32:18;;;;;;;14.88;4.55;;;21.70;72.70;;;;;;5056037;28;20028;-74
2022/05/14 08:34:44;;;;;;;20.35;4.28;;;22.20;70.40;;;;;;5074256;28;20024;-73
2022/05/14 08:37:11;;;;;;;15.90;4.20;;;23.10;70.60;;;;;;5074009;28;20044;-72
2022/05/14 08:39:37;;;;;;;16.23;4.68;;;23.60;68.10;;;;;;5073655;28;20036;-74
2022/05/14 08:42:05;;;;;;;17.45;4.93;;;22.70;67.90;;;;;;5073455;28;20025;-72
2022/05/14 08:44:33;;;;;;;22.02;4.80;;;22.50;68.50;;;;;;5073703;28;20059;-75
2022/05/14 08:47:03;;;;;;;;;;;23.70;67.90;;;;;;5074464;28;20173;-75
2022/05/14 08:49:29;;;;;;;17.88;4.82;;;24.30;65.80;;;;;;5056163;28;19909;-71
2022/05/14 08:51:56;;;;;;;13.95;3.50;;;25.10;64.40;;;;;;5073749;28;20043;-75
2022/05/14 08:54:22;;;;;;;18.23;3.97;;;25.70;62.20;;;;;;5073473;28;20040;-74
2022/05/14 08:56:51;;;;;;;22.33;4.55;;;25.80;61.50;;;;;;5073551;28;20369;-74
2022/05/14 08:59:44;;;;;;;19.70;4.60;;;25.90;60.80;;;;;;5055715;28;20035;-75
2022/05/14 09:02:38;;;;;;;23.38;4.60;;;25.60;60.20;;;;;;5064669;28;20024;-75
2022/05/14 09:05:32;;;;;;;19.42;5.20;;;24.90;61.80;;;;;;5059016;28;20049;-77
2022/05/14 09:07:58;;;;;;;19.77;5.05;;;24.80;61.60;;;;;;5052535;28;20361;-74
2022/05/14 09:10:32;;;;;;;17.20;4.00;;;25.20;60.60;;;;;;5073237;28;20509;-74
2022/05/14 09:13:17;;;;;;;15.88;4.32;;;26.20;59.30;;;;;;5073517;28;20725;-75
2022/05/14 09:15:48;;;;;;;17.73;4.93;;;24.80;59.50;;;;;;5072398;28;20052;-75
2022/05/14 09:18:21;;;;;;;15.02;4.60;;;25.00;59.70;;;;;;5055344;28;20412;-72
2022/05/14 09:20:53;;;;;;;14.65;4.05;;;25.50;59.70;;;;;;5073092;28;20036;-73
2022/05/14 09:23:32;;;;;;;19.60;3.70;;;25.30;59.60;;;;;;5072922;28;20081;-74
2022/05/14 09:26:08;;;;;;;42.92;5.10;;;24.40;58.80;;;;;;5073284;28;20078;-73
2022/05/14 09:28:42;;;;;;;20.95;5.00;;;24.00;59.90;;;;;;5073130;28;20119;-75
2022/05/14 09:31:09;;;;;;;23.38;4.03;;;24.30;59.30;;;;;;5073316;28;20024;-80
2022/05/14 09:33:39;;;;;;;14.20;3.88;;;24.00;59.50;;;;;;5055656;28;20056;-82
2022/05/14 09:36:05;;;;;;;15.52;3.80;;;23.80;59.40;;;;;;5073562;28;20519;-80
2022/05/14 09:38:31;;;;;;;12.95;3.88;;;24.80;59.60;;;;;;5077837;28;20032;-81
2022/05/14 09:41:18;;;;;;;14.93;3.97;;;25.20;58.50;;;;;;5063720;28;20024;-80
2022/05/14 09:43:45;;;;;;;19.15;4.90;;;25.40;58.80;;;;;;5061696;28;20480;-79
2022/05/14 09:46:28;;;;;;;15.20;4.05;;;24.90;58.30;;;;;;5055448;28;20240;-78
2022/05/14 09:49:01;;;;;;;17.83;4.80;;;24.60;58.40;;;;;;5074964;28;20032;-76
2022/05/14 09:51:46;;;;;;;21.20;4.45;;;24.40;58.80;;;;;;5057714;28;20033;-79
2022/05/14 09:54:21;;;;;;;14.68;3.90;;;24.80;58.50;;;;;;5059679;28;20039;-81
2022/05/14 09:57:08;;;;;;;15.60;3.55;;;24.30;58.90;;;;;;5081177;28;20515;-81
2022/05/14 09:59:43;;;;;;;14.35;3.38;;;24.90;58.90;;;;;;5077862;28;20032;-80
2022/05/14 10:02:28;;;;;;;14.65;3.88;;;24.40;58.40;;;;;;5073869;28;20028;-81
2022/05/14 10:05:32;;;;;;;14.52;3.88;;;23.40;59.30;;;;;;5056424;28;20040;-79
2022/05/14 10:08:31;;;;;;;11.27;3.47;;;23.90;59.60;;;;;;5073380;28;20056;-82
2022/05/14 10:11:12;;;;;;;17.27;7.18;;;23.90;59.30;;;;;;5042528;28;20040;-80
2022/05/14 10:13:52;;;;;;;19.17;5.07;;;23.80;59.90;;;;;;5072954;28;20559;-76
2022/05/14 10:16:53;;;;;;;19.95;5.55;;;23.80;59.50;;;;;;5073479;28;20639;-80
2022/05/14 10:19:31;;;;;;;23.73;5.35;;;23.40;60.40;;;;;;5029439;28;20088;-83
2022/05/14 10:22:00;;;;;;;;;;;22.90;60.40;;;;;;5058736;28;20059;-83
2022/05/14 10:27:33;;;;;;;29.55;4.57;;;22.90;61.60;;;;;;5074039;28;20519;-80
2022/05/14 10:30:08;;;;;;;26.02;4.45;;;22.80;61.10;;;;;;5054395;28;20371;-79
2022/05/14 10:32:34;;;;;;;15.90;3.80;;;22.90;61.90;;;;;;5056241;28;20043;-79
2022/05/14 10:35:24;;;;;;;16.83;4.28;;;23.00;60.60;;;;;;5072015;28;20032;-78
2022/05/14 10:37:53;;;;;;;21.92;4.18;;;22.40;60.30;;;;;;5054788;28;20410;-82
2022/05/14 10:40:40;;;;;;;19.65;4.97;;;22.40;61.40;;;;;;5054799;28;20040;-82
2022/05/14 10:43:30;;;;;;;14.85;3.90;;;22.30;62.20;;;;;;5072146;28;20469;-82
2022/05/14 10:45:57;;;;;;;16.35;3.17;;;22.40;61.60;;;;;;5072474;28;20118;-85
2022/05/14 10:48:49;;;;;;;22.47;4.20;;;22.30;60.70;;;;;;5072686;28;20090;-81
2022/05/14 10:51:22;;;;;;;18.58;3.70;;;22.60;60.90;;;;;;5072249;28;20032;-85
2022/05/14 10:53:48;;;;;;;14.00;3.58;;;22.30;60.00;;;;;;5054917;28;20121;-85
2022/05/14 10:56:22;;;;;;;26.30;4.53;;;22.40;60.90;;;;;;5054413;28;20031;-80
2022/05/14 10:58:51;;;;;;;49.17;23.20;;;22.60;60.70;;;;;;5054425;28;20020;-80
2022/05/14 11:01:28;;;;;;;14.45;4.43;;;22.80;60.60;;;;;;5071940;28;20037;-81
2022/05/14 11:03:57;;;;;;;26.45;4.78;;;23.30;60.00;;;;;;5053997;28;20044;-80
2022/05/14 11:06:33;;;;;;;18.40;3.90;;;22.30;59.30;;;;;;5071854;28;20032;-83
2022/05/14 11:08:59;;;;;;;25.55;4.25;;;22.40;60.40;;;;;;5071996;28;20497;-81
2022/05/14 11:11:31;;;;;;;20.92;3.70;;;22.60;60.50;;;;;;5071526;28;20043;-82
2022/05/14 11:14:02;;;;;;;21.00;4.05;;;22.50;60.00;;;;;;5071673;28;20043;-75
2022/05/14 11:16:40;;;;;;;21.80;3.80;;;22.80;60.60;;;;;;5072074;28;20478;-83
2022/05/14 11:19:07;;;;;;;14.13;3.10;;;22.90;59.40;;;;;;5071945;28;20044;-82
2022/05/14 11:21:44;;;;;;;26.40;3.78;;;23.00;59.00;;;;;;5071878;28;20028;-81
2022/05/14 11:24:12;;;;;;;;;;;22.60;59.60;;;;;;5071687;28;20036;-76
2022/05/14 11:26:53;;;;;;;20.38;3.90;;;22.60;59.30;;;;;;5071980;28;20243;-87
2022/05/14 11:29:27;;;;;;;16.73;3.47;;;22.40;59.60;;;;;;5044135;28;20032;-86
2022/05/14 11:32:08;;;;;;;17.75;3.67;;;22.10;59.90;;;;;;5073218;28;20054;-91
2022/05/14 11:34:34;;;;;;;18.92;3.78;;;22.40;60.40;;;;;;5073365;28;20127;-86
2022/05/14 11:37:03;;;;;;;16.52;3.15;;;22.50;59.20;;;;;;5073058;28;20024;-84
2022/05/14 11:39:31;;;;;;;19.83;3.50;;;22.40;58.40;;;;;;5054747;28;20515;-85
2022/05/14 11:42:11;;;;;;;21.17;3.35;;;22.20;58.60;;;;;;5072076;28;20128;-88
2022/05/14 11:44:40;;;;;;;14.45;3.80;;;22.10;58.60;;;;;;5072050;28;20052;-83
2022/05/14 11:47:26;;;;;;;13.85;3.42;;;22.20;58.20;;;;;;5071472;28;20392;-82
2022/05/14 11:49:55;;;;;;;17.15;3.15;;;22.10;58.00;;;;;;5071815;28;20388;-77
2022/05/14 11:52:33;;;;;;;12.30;3.28;;;22.50;58.20;;;;;;5070809;28;20097;-76
2022/05/14 11:55:25;;;;;;;23.00;3.40;;;22.90;58.10;;;;;;5070772;28;20152;-81
2022/05/14 11:58:06;;;;;;;16.80;3.72;;;22.50;57.70;;;;;;5070802;28;20115;-74
2022/05/14 12:00:34;;;;;;;12.20;3.00;;;22.50;57.70;;;;;;5071073;28;20112;-75
2022/05/14 12:03:21;;;;;;;14.20;3.47;;;22.70;57.20;;;;;;5073234;28;20039;-84
2022/05/14 12:05:57;;;;;;;17.15;3.70;;;22.80;56.50;;;;;;5074655;28;20058;-72
2022/05/14 12:08:46;;;;;;;19.50;4.28;;;22.60;56.50;;;;;;5074640;28;20358;-73
2022/05/14 12:11:40;;;;;;;19.90;3.90;;;22.40;56.60;;;;;;5056325;28;20116;-74
2022/05/14 12:14:14;;;;;;;19.83;4.60;;;22.40;56.60;;;;;;5074555;28;20453;-80
2022/05/14 12:16:54;;;;;;;16.08;3.30;;;22.20;56.80;;;;;;5057315;28;20036;-74
2022/05/14 12:19:29;;;;;;;16.52;3.50;;;22.00;57.50;;;;;;5056796;28;20029;-77
2022/05/14 12:22:06;;;;;;;14.02;2.83;;;22.00;57.30;;;;;;5074678;28;20036;-78
2022/05/14 12:24:33;;;;;;;;;;;22.10;57.40;;;;;;5074997;28;20028;-81
2022/05/14 12:27:00;;;;;;;18.27;3.55;;;22.10;56.60;;;;;;5074667;28;20352;-84
2022/05/14 12:29:31;;;;;;;14.95;2.97;;;22.10;55.90;;;;;;5056285;28;20032;-82
2022/05/14 12:34:56;;;;;;;18.15;3.80;;;22.10;55.00;;;;;;5074875;28;20043;-79
2022/05/14 12:37:27;;;;;;;17.15;3.20;;;22.00;55.20;;;;;;5074383;28;20086;-79
2022/05/14 12:39:56;;;;;;;18.10;3.72;;;22.10;55.30;;;;;;5056675;28;20446;-79
2022/05/14 12:42:30;;;;;;;12.20;3.00;;;22.00;55.00;;;;;;5074493;28;20115;-82
2022/05/14 12:44:57;;;;;;;15.57;3.58;;;22.10;54.90;;;;;;5056874;28;20432;-80
2022/05/14 12:47:29;;;;;;;19.52;4.60;;;22.30;55.10;;;;;;5074037;28;20027;-83
2022/05/14 12:49:55;;;;;;;16.60;3.83;;;22.50;55.30;;;;;;5056859;28;20024;-80
2022/05/14 12:52:32;;;;;;;12.23;3.38;;;22.60;54.60;;;;;;5074651;28;20047;-83
2022/05/14 12:55:12;;;;;;;16.27;3.95;;;22.60;54.50;;;;;;5074165;28;20044;-81
2022/05/14 12:57:46;;;;;;;15.95;3.17;;;22.70;54.20;;;;;;5073959;28;20412;-80
2022/05/14 13:00:15;;;;;;;13.55;2.95;;;22.90;53.70;;;;;;5056525;28;20028;-82
2022/05/14 13:03:19;;;;;;;19.23;4.20;;;22.90;53.60;;;;;;5056706;28;20036;-81
2022/05/14 13:05:54;;;;;;;17.48;3.47;;;22.90;53.70;;;;;;5056538;28;20017;-81
2022/05/14 13:08:23;;;;;;;17.77;3.78;;;22.80;53.80;;;;;;5074155;28;20434;-81
2022/05/14 13:10:56;;;;;;;14.50;3.92;;;22.60;54.00;;;;;;5075118;28;20548;-82
2022/05/14 13:13:50;;;;;;;13.57;3.00;;;22.50;54.30;;;;;;5056485;28;20036;-81
2022/05/14 13:16:19;;;;;;;15.77;2.90;;;22.70;54.60;;;;;;5071858;28;20052;-82
2022/05/14 13:18:51;;;;;;;15.60;3.22;;;22.40;54.40;;;;;;5058085;28;20021;-84
2022/05/14 13:21:29;;;;;;;14.55;3.58;;;22.50;54.60;;;;;;5076991;28;20043;-84
2022/05/14 13:24:03;;;;;;;16.77;3.13;;;22.70;54.20;;;;;;5064225;28;20029;-84
2022/05/14 13:26:40;;;;;;;10.57;3.35;;;22.60;54.30;;;;;;5089343;28;20032;-82
2022/05/14 13:29:22;;;;;;;12.20;2.92;;;22.60;54.10;;;;;;5088919;28;20020;-81
2022/05/14 13:32:03;;;;;;;10.63;2.72;;;22.50;54.50;;;;;;5089832;28;20074;-84
2022/05/14 13:37:30;;;;;;;10.02;2.67;;;22.50;54.00;;;;;;5080782;28;20179;-81
2022/05/14 13:40:31;;;;;;;11.73;2.33;;;22.30;54.30;;;;;;5081627;28;20028;-83
2022/05/14 13:42:58;;;;;;;21.65;3.60;;;22.30;54.30;;;;;;5066014;28;20245;-82
2022/05/14 13:45:31;;;;;;;12.57;2.88;;;22.20;53.70;;;;;;5067501;28;20025;-80
2022/05/14 13:48:10;;;;;;;15.93;2.83;;;22.20;53.60;;;;;;5082946;28;20040;-82
2022/05/14 13:50:39;;;;;;;12.55;3.10;;;22.10;53.70;;;;;;5082491;28;20032;-81
2022/05/14 13:53:07;;;;;;;17.10;3.35;;;22.10;53.90;;;;;;5081374;28;20021;-83
2022/05/14 13:55:37;;;;;;;10.30;2.78;;;22.20;53.70;;;;;;5061962;28;20497;-82
2022/05/14 13:58:18;;;;;;;13.50;2.92;;;22.10;53.50;;;;;;5079818;28;20043;-83
2022/05/14 14:00:54;;;;;;;14.10;3.50;;;22.20;53.80;;;;;;5064956;28;20039;-79